Time;durP1;ratioP1;P1;durP2;ratioP2;P2;SDS_P1;SDS_P2;PMS_P1;PMS_P2;Temp;Humidity;BMP_temperature;BMP_pressure;BME280_temperature;BME280_humidity;BME280_pressure;Samples;Min_cycle;Max_cycle;Signal;HPM_P1;HPM_P2
2021/12/09 00:01:23;;;;;;;62.72;33.90;;;;;;;;;;5031430;28;20056;-47
2021/12/09 00:03:51;;;;;;;60.00;31.05;;;;;;;;;;5032570;28;20790;-44
2021/12/09 00:06:21;;;;;;;63.33;29.13;;;;;;;;;;5032338;28;20064;-45
2021/12/09 00:08:48;;;;;;;64.72;34.22;;;;;;;;;;5052535;28;20028;-47
2021/12/09 00:11:14;;;;;;;59.40;31.85;;;;;;;;;;5055612;28;20028;-45
2021/12/09 00:13:40;;;;;;;63.47;32.95;;;;;;;;;;5055544;28;20047;-46
2021/12/09 00:16:06;;;;;;;64.00;32.13;;;;;;;;;;5055342;28;20084;-46
2021/12/09 00:18:33;;;;;;;59.05;30.50;;;;;;;;;;5055582;28;20021;-46
2021/12/09 00:20:59;;;;;;;58.80;31.52;;;;;;;;;;5055665;28;20052;-47
2021/12/09 00:23:25;;;;;;;57.47;31.80;;;;;;;;;;5055283;28;20033;-46
2021/12/09 00:25:51;;;;;;;56.47;31.13;;;;;;;;;;5055448;28;20129;-46
2021/12/09 00:28:17;;;;;;;59.45;30.25;;;;;;;;;;5055236;28;20434;-45
2021/12/09 00:30:43;;;;;;;55.70;30.60;;;;;;;;;;5055257;28;20025;-46
2021/12/09 00:33:10;;;;;;;57.38;29.90;;;;;;;;;;5055354;28;20481;-45
2021/12/09 00:35:49;;;;;;;54.90;29.33;;;;;;;;;;5055269;28;20069;-48
2021/12/09 00:38:33;;;;;;;58.70;30.63;;;;;;;;;;5055188;28;20031;-46
2021/12/09 00:40:59;;;;;;;54.30;27.67;;;;;;;;;;5055231;28;20465;-46
2021/12/09 00:43:25;;;;;;;56.17;29.60;;;;;;;;;;5055105;28;20423;-46
2021/12/09 00:45:52;;;;;;;56.60;30.00;;;;;;;;;;5055160;28;20388;-46
2021/12/09 00:48:18;;;;;;;58.35;29.00;;;;;;;;;;5055018;28;20017;-47
2021/12/09 00:50:44;;;;;;;54.28;28.75;;;;;;;;;;5054992;28;20060;-45
2021/12/09 00:53:10;;;;;;;55.40;30.05;;;;;;;;;;5055005;28;20433;-45
2021/12/09 00:55:37;;;;;;;58.28;28.70;;;;;;;;;;5047307;28;20025;-45
2021/12/09 00:58:05;;;;;;;57.15;28.75;;;;;;;;;;5035089;28;20109;-47
2021/12/09 01:00:31;;;;;;;56.42;28.75;;;;;;;;;;5034952;28;20076;-46
2021/12/09 01:02:58;;;;;;;61.30;31.38;;;;;;;;;;5034684;28;20029;-46
2021/12/09 01:05:25;;;;;;;58.90;31.80;;;;;;;;;;5034701;28;20498;-46
2021/12/09 01:07:51;;;;;;;79.03;39.78;;;;;;;;;;5033558;28;20496;-46
2021/12/09 01:10:20;;;;;;;53.47;29.73;;;;;;;;;;5034297;28;20021;-50
2021/12/09 01:12:46;;;;;;;56.45;29.58;;;;;;;;;;5034695;28;20095;-48
2021/12/09 01:15:13;;;;;;;57.78;28.23;;;;;;;;;;5034483;28;20117;-49
2021/12/09 01:17:42;;;;;;;60.97;31.77;;;;;;;;;;5034437;28;20040;-46
2021/12/09 01:20:09;;;;;;;55.45;29.17;;;;;;;;;;5034632;28;20147;-47
2021/12/09 01:22:42;;;;;;;55.92;29.05;;;;;;;;;;5034350;28;20056;-47
2021/12/09 01:25:10;;;;;;;53.53;30.38;;;;;;;;;;5034452;28;20076;-46
2021/12/09 01:27:38;;;;;;;53.53;29.25;;;;;;;;;;5034607;28;20474;-46
2021/12/09 01:30:12;;;;;;;53.95;28.00;;;;;;;;;;5034433;28;20029;-46
2021/12/09 01:32:42;;;;;;;52.10;29.58;;;;;;;;;;5034433;28;20482;-45
2021/12/09 01:35:08;;;;;;;55.63;27.92;;;;;;;;;;5034362;28;20045;-46
2021/12/09 01:37:35;;;;;;;51.70;28.00;;;;;;;;;;5034041;28;20057;-45
2021/12/09 01:40:03;;;;;;;52.70;28.10;;;;;;;;;;5034412;28;20052;-46
2021/12/09 01:42:29;;;;;;;54.92;28.60;;;;;;;;;;5034242;28;20034;-45
2021/12/09 01:44:57;;;;;;;55.00;28.45;;;;;;;;;;5033957;28;20040;-47
2021/12/09 01:47:24;;;;;;;56.40;28.80;;;;;;;;;;5034125;28;20108;-47
2021/12/09 01:49:50;;;;;;;52.92;28.00;;;;;;;;;;5034143;28;20504;-48
2021/12/09 01:52:16;;;;;;;52.38;27.25;;;;;;;;;;5033835;28;20033;-46
2021/12/09 01:54:42;;;;;;;50.15;26.45;;;;;;;;;;5034160;28;20017;-50
2021/12/09 01:57:12;;;;;;;48.33;26.45;;;;;;;;;;5033854;28;20029;-47
2021/12/09 01:59:40;;;;;;;46.92;26.67;;;;;;;;;;5033882;28;20049;-48
2021/12/09 02:02:06;;;;;;;53.83;26.63;;;;;;;;;;5033774;28;20401;-47
2021/12/09 02:04:32;;;;;;;47.28;26.13;;;;;;;;;;5033862;28;20030;-46
2021/12/09 02:07:01;;;;;;;52.28;27.08;;;;;;;;;;5033648;28;20017;-46
2021/12/09 02:09:27;;;;;;;41.58;24.33;;;;;;;;;;5033712;28;20025;-47
2021/12/09 02:11:53;;;;;;;46.45;26.17;;;;;;;;;;5033615;28;20067;-46
2021/12/09 02:14:20;;;;;;;47.60;24.80;;;;;;;;;;5033464;28;20382;-46
2021/12/09 02:16:48;;;;;;;43.10;23.30;;;;;;;;;;5033432;28;20440;-47
2021/12/09 02:19:15;;;;;;;43.83;23.65;;;;;;;;;;5033628;28;20045;-48
2021/12/09 02:21:42;;;;;;;40.78;23.42;;;;;;;;;;5032705;28;20102;-46
2021/12/09 02:24:10;;;;;;;43.00;24.42;;;;;;;;;;5033500;28;20418;-51
2021/12/09 02:26:38;;;;;;;40.97;21.92;;;;;;;;;;5033400;28;20028;-50
2021/12/09 02:29:04;;;;;;;44.63;24.15;;;;;;;;;;5033587;28;20091;-49
2021/12/09 02:31:32;;;;;;;45.13;22.83;;;;;;;;;;5033345;28;20491;-48
2021/12/09 02:33:58;;;;;;;43.83;24.40;;;;;;;;;;5033492;28;20380;-46
2021/12/09 02:36:25;;;;;;;45.45;21.70;;;;;;;;;;5033322;28;20043;-47
2021/12/09 02:38:58;;;;;;;41.25;22.73;;;;;;;;;;5033542;28;20381;-45
2021/12/09 02:41:25;;;;;;;44.72;24.52;;;;;;;;;;5033383;28;20021;-46
2021/12/09 02:43:58;;;;;;;40.42;22.27;;;;;;;;;;5033247;28;20064;-45
2021/12/09 02:46:25;;;;;;;42.65;22.80;;;;;;;;;;5033179;28;20524;-47
2021/12/09 02:48:51;;;;;;;41.45;23.77;;;;;;;;;;5033209;28;20059;-45
2021/12/09 02:51:17;;;;;;;37.10;21.67;;;;;;;;;;5033418;28;20029;-45
2021/12/09 02:53:44;;;;;;;37.17;21.63;;;;;;;;;;5033371;28;20025;-45
2021/12/09 02:56:11;;;;;;;44.42;22.95;;;;;;;;;;5033425;28;20443;-48
2021/12/09 02:58:37;;;;;;;37.20;22.30;;;;;;;;;;5033159;28;20022;-46
2021/12/09 03:01:12;;;;;;;41.25;21.73;;;;;;;;;;5033228;28;20037;-49
2021/12/09 03:03:46;;;;;;;43.22;22.10;;;;;;;;;;5033085;28;20037;-46
2021/12/09 03:06:13;;;;;;;40.22;23.15;;;;;;;;;;5033093;28;20041;-47
2021/12/09 03:08:40;;;;;;;40.17;21.98;;;;;;;;;;5033230;28;20109;-46
2021/12/09 03:11:11;;;;;;;36.55;20.50;;;;;;;;;;5033069;28;20017;-46
2021/12/09 03:13:38;;;;;;;36.20;21.17;;;;;;;;;;5032941;28;20029;-46
2021/12/09 03:16:05;;;;;;;39.08;21.58;;;;;;;;;;5032718;28;20084;-46
2021/12/09 03:18:31;;;;;;;36.85;21.33;;;;;;;;;;5032827;28;20052;-46
2021/12/09 03:20:57;;;;;;;35.00;19.70;;;;;;;;;;5032879;28;20045;-45
2021/12/09 03:23:27;;;;;;;40.90;21.98;;;;;;;;;;5032932;28;20033;-46
2021/12/09 03:25:56;;;;;;;37.70;20.02;;;;;;;;;;5033048;28;20028;-46
2021/12/09 03:28:22;;;;;;;38.90;21.00;;;;;;;;;;5032846;28;20101;-45
2021/12/09 03:30:50;;;;;;;37.50;20.95;;;;;;;;;;5032742;28;20500;-46
2021/12/09 03:33:16;;;;;;;36.28;20.50;;;;;;;;;;5034626;28;20025;-50
2021/12/09 03:35:45;;;;;;;38.50;21.42;;;;;;;;;;5036695;28;20014;-45
2021/12/09 03:38:11;;;;;;;39.35;20.05;;;;;;;;;;5036585;28;20032;-45
2021/12/09 03:40:37;;;;;;;35.95;20.27;;;;;;;;;;5036534;28;20025;-46
2021/12/09 03:43:03;;;;;;;35.90;20.65;;;;;;;;;;5036216;28;20083;-47
2021/12/09 03:45:29;;;;;;;35.70;20.70;;;;;;;;;;5036126;28;20386;-48
2021/12/09 03:47:55;;;;;;;36.92;19.73;;;;;;;;;;5036164;28;20116;-46
2021/12/09 03:50:21;;;;;;;31.83;18.13;;;;;;;;;;5036421;28;20054;-47
2021/12/09 03:52:47;;;;;;;39.83;21.30;;;;;;;;;;5036155;28;20105;-47
2021/12/09 03:55:14;;;;;;;34.10;20.42;;;;;;;;;;5036089;28;20064;-49
2021/12/09 03:57:40;;;;;;;32.92;19.75;;;;;;;;;;5036133;28;20018;-47
2021/12/09 04:00:08;;;;;;;32.92;18.80;;;;;;;;;;5036058;28;20576;-51
2021/12/09 04:02:34;;;;;;;33.42;18.27;;;;;;;;;;5035951;28;20068;-48
2021/12/09 04:05:00;;;;;;;37.55;20.38;;;;;;;;;;5034690;28;20018;-46
2021/12/09 04:07:31;;;;;;;33.88;18.98;;;;;;;;;;5035872;28;20029;-47
2021/12/09 04:09:57;;;;;;;34.65;17.38;;;;;;;;;;5035919;28;20104;-47
2021/12/09 04:12:23;;;;;;;34.95;18.55;;;;;;;;;;5035922;28;20040;-46
2021/12/09 04:14:49;;;;;;;35.00;18.45;;;;;;;;;;5035573;28;20037;-46
2021/12/09 04:17:15;;;;;;;32.17;18.65;;;;;;;;;;5035611;28;20465;-45
2021/12/09 04:19:47;;;;;;;30.83;17.45;;;;;;;;;;5035683;28;20117;-47
2021/12/09 04:22:13;;;;;;;35.10;18.90;;;;;;;;;;5035626;28;20036;-47
2021/12/09 04:24:39;;;;;;;35.05;19.55;;;;;;;;;;5035785;28;20041;-46
2021/12/09 04:27:10;;;;;;;34.03;17.88;;;;;;;;;;5035592;28;20034;-46
2021/12/09 04:29:39;;;;;;;32.90;18.67;;;;;;;;;;5035712;28;20036;-46
2021/12/09 04:32:05;;;;;;;35.33;18.77;;;;;;;;;;5035313;28;20099;-46
2021/12/09 04:34:32;;;;;;;31.60;17.65;;;;;;;;;;5035700;28;20382;-47
2021/12/09 04:36:59;;;;;;;35.05;18.40;;;;;;;;;;5035383;28;20025;-47
2021/12/09 04:39:27;;;;;;;30.73;17.90;;;;;;;;;;5035442;28;20048;-47
2021/12/09 04:41:54;;;;;;;31.27;17.80;;;;;;;;;;5035371;28;20551;-45
2021/12/09 04:44:20;;;;;;;33.63;18.58;;;;;;;;;;5034449;28;20429;-45
2021/12/09 04:46:47;;;;;;;34.50;18.25;;;;;;;;;;5035082;28;20040;-46
2021/12/09 04:49:13;;;;;;;30.00;17.10;;;;;;;;;;5035405;28;20359;-45
2021/12/09 04:51:39;;;;;;;31.98;19.02;;;;;;;;;;5035345;28;20021;-46
2021/12/09 04:54:05;;;;;;;35.85;19.77;;;;;;;;;;5035322;28;20030;-45
2021/12/09 04:56:31;;;;;;;34.65;19.20;;;;;;;;;;5035006;28;20100;-44
2021/12/09 04:59:00;;;;;;;28.77;16.60;;;;;;;;;;5034988;28;20539;-46
2021/12/09 05:01:26;;;;;;;27.77;17.02;;;;;;;;;;5034786;28;20048;-47
2021/12/09 05:03:52;;;;;;;29.63;17.15;;;;;;;;;;5034809;28;20490;-46
2021/12/09 05:06:18;;;;;;;28.05;17.42;;;;;;;;;;5034638;28;20026;-45
2021/12/09 05:08:47;;;;;;;31.13;17.40;;;;;;;;;;5034885;28;20025;-45
2021/12/09 05:11:28;;;;;;;33.80;18.00;;;;;;;;;;5034551;28;20022;-45
2021/12/09 05:13:54;;;;;;;29.65;16.65;;;;;;;;;;5034492;28;20528;-46
2021/12/09 05:16:21;;;;;;;27.95;16.98;;;;;;;;;;5034300;28;20553;-47
2021/12/09 05:18:48;;;;;;;31.92;17.55;;;;;;;;;;5034539;28;20024;-45
2021/12/09 05:21:17;;;;;;;32.28;17.85;;;;;;;;;;5034416;28;20030;-46
2021/12/09 05:23:43;;;;;;;29.98;17.05;;;;;;;;;;5034288;28;20034;-46
2021/12/09 05:26:10;;;;;;;26.77;15.20;;;;;;;;;;5034423;28;20021;-45
2021/12/09 05:28:36;;;;;;;27.67;15.93;;;;;;;;;;5034244;28;20033;-46
2021/12/09 05:33:49;;;;;;;28.15;16.25;;;;;;;;;;5034555;28;20604;-45
2021/12/09 05:36:15;;;;;;;29.27;16.65;;;;;;;;;;5034387;28;20026;-46
2021/12/09 05:38:41;;;;;;;24.40;15.43;;;;;;;;;;5034254;28;20025;-45
2021/12/09 05:41:07;;;;;;;29.85;16.20;;;;;;;;;;5034118;28;20025;-45
2021/12/09 05:43:34;;;;;;;28.98;16.20;;;;;;;;;;5033877;28;20044;-45
2021/12/09 05:46:00;;;;;;;30.65;16.27;;;;;;;;;;5033897;28;20513;-45
2021/12/09 05:48:26;;;;;;;28.38;17.27;;;;;;;;;;5033979;28;20025;-45
2021/12/09 05:50:53;;;;;;;30.08;16.02;;;;;;;;;;5034031;28;20052;-45
2021/12/09 05:53:19;;;;;;;25.25;15.27;;;;;;;;;;5033912;28;20025;-46
2021/12/09 05:55:45;;;;;;;32.53;16.52;;;;;;;;;;5033531;28;20466;-46
2021/12/09 05:58:15;;;;;;;33.65;17.77;;;;;;;;;;5033387;28;20064;-45
2021/12/09 06:00:41;;;;;;;29.55;16.40;;;;;;;;;;5033751;28;20028;-45
2021/12/09 06:03:10;;;;;;;31.48;16.38;;;;;;;;;;5033687;28;20022;-45
2021/12/09 06:05:36;;;;;;;28.35;15.88;;;;;;;;;;5033790;28;20060;-45
2021/12/09 06:08:03;;;;;;;26.75;15.48;;;;;;;;;;5033716;28;20022;-45
2021/12/09 06:10:30;;;;;;;28.70;15.63;;;;;;;;;;5033758;28;20029;-46
2021/12/09 06:12:56;;;;;;;31.73;16.92;;;;;;;;;;5033567;28;20018;-46
2021/12/09 06:15:22;;;;;;;25.08;14.60;;;;;;;;;;5033396;28;20052;-46
2021/12/09 06:17:49;;;;;;;25.45;14.77;;;;;;;;;;5033595;28;20104;-46
2021/12/09 06:20:15;;;;;;;27.38;15.93;;;;;;;;;;5033598;28;20108;-46
2021/12/09 06:22:43;;;;;;;25.95;15.35;;;;;;;;;;5033469;28;20065;-48
2021/12/09 06:25:17;;;;;;;28.65;15.45;;;;;;;;;;5033516;28;20409;-50
2021/12/09 06:27:44;;;;;;;31.40;16.63;;;;;;;;;;5033475;28;20032;-46
2021/12/09 06:30:10;;;;;;;28.83;15.38;;;;;;;;;;5033476;28;20057;-51
2021/12/09 06:32:38;;;;;;;27.80;15.82;;;;;;;;;;5033404;28;20021;-48
2021/12/09 06:35:05;;;;;;;25.98;13.63;;;;;;;;;;5033567;28;20378;-45
2021/12/09 06:37:38;;;;;;;27.10;15.05;;;;;;;;;;5033287;28;20024;-47
2021/12/09 06:40:04;;;;;;;27.75;14.63;;;;;;;;;;5033347;28;20026;-45
2021/12/09 06:42:30;;;;;;;30.42;14.98;;;;;;;;;;5033203;28;20081;-46
2021/12/09 06:44:56;;;;;;;24.27;14.00;;;;;;;;;;5033034;28;20037;-46
2021/12/09 06:47:22;;;;;;;24.70;14.93;;;;;;;;;;5033262;28;20034;-46
2021/12/09 06:49:50;;;;;;;21.60;13.60;;;;;;;;;;5032033;28;20029;-45
2021/12/09 06:52:16;;;;;;;24.80;13.63;;;;;;;;;;5033302;28;20048;-46
2021/12/09 06:54:42;;;;;;;23.67;13.07;;;;;;;;;;5033070;28;20022;-46
2021/12/09 06:57:08;;;;;;;26.23;14.02;;;;;;;;;;5033247;28;20053;-45
2021/12/09 06:59:34;;;;;;;24.20;13.80;;;;;;;;;;5033225;28;20096;-45
2021/12/09 07:02:01;;;;;;;25.17;14.05;;;;;;;;;;5033127;28;20394;-47
2021/12/09 07:04:27;;;;;;;26.40;13.80;;;;;;;;;;5033163;28;20033;-46
2021/12/09 07:06:53;;;;;;;20.95;12.88;;;;;;;;;;5032991;28;20028;-45
2021/12/09 07:09:19;;;;;;;25.45;14.00;;;;;;;;;;5036584;28;20474;-45
2021/12/09 07:11:50;;;;;;;23.75;13.40;;;;;;;;;;5036932;28;20493;-45
2021/12/09 07:14:17;;;;;;;22.20;13.07;;;;;;;;;;5036984;28;20025;-45
2021/12/09 07:16:43;;;;;;;26.20;13.43;;;;;;;;;;5036653;28;20132;-49
2021/12/09 07:19:10;;;;;;;31.20;13.32;;;;;;;;;;5036848;28;20029;-46
2021/12/09 07:21:36;;;;;;;25.70;14.32;;;;;;;;;;5036707;28;20021;-45
2021/12/09 07:24:03;;;;;;;76.60;33.70;;;;;;;;;;5036714;28;20104;-46
2021/12/09 07:26:30;;;;;;;30.48;15.88;;;;;;;;;;5036646;28;20413;-45
2021/12/09 07:28:58;;;;;;;29.38;15.77;;;;;;;;;;5036766;28;20108;-46
2021/12/09 07:31:25;;;;;;;28.10;14.82;;;;;;;;;;5036418;28;20056;-44
2021/12/09 07:33:52;;;;;;;25.00;14.02;;;;;;;;;;5036555;28;20025;-46
2021/12/09 07:36:18;;;;;;;22.95;13.10;;;;;;;;;;5036621;28;20046;-45
2021/12/09 07:38:46;;;;;;;31.83;15.10;;;;;;;;;;5036391;28;20029;-43
2021/12/09 07:41:18;;;;;;;24.25;13.82;;;;;;;;;;5036338;28;20029;-44
2021/12/09 07:43:46;;;;;;;22.55;12.75;;;;;;;;;;5036304;28;20038;-45
2021/12/09 07:46:13;;;;;;;25.52;12.32;;;;;;;;;;5036334;28;20029;-47
2021/12/09 07:48:39;;;;;;;29.45;13.80;;;;;;;;;;5036315;28;20109;-44
2021/12/09 07:51:05;;;;;;;27.58;13.15;;;;;;;;;;5036140;28;20029;-45
2021/12/09 07:53:31;;;;;;;21.80;11.63;;;;;;;;;;5036059;28;20021;-44
2021/12/09 07:55:59;;;;;;;24.27;12.85;;;;;;;;;;5036107;28;20029;-45
2021/12/09 07:58:28;;;;;;;29.50;12.45;;;;;;;;;;5036450;28;20505;-47
2021/12/09 08:00:54;;;;;;;25.45;12.27;;;;;;;;;;5036130;28;20501;-49
2021/12/09 08:03:20;;;;;;;22.67;11.25;;;;;;;;;;5035844;28;20143;-47
2021/12/09 08:05:47;;;;;;;22.52;11.35;;;;;;;;;;5036119;28;20418;-46
2021/12/09 08:08:14;;;;;;;26.23;11.65;;;;;;;;;;5035893;28;20014;-46
2021/12/09 08:10:43;;;;;;;21.75;10.50;;;;;;;;;;5035215;28;20377;-47
2021/12/09 08:13:09;;;;;;;21.58;11.52;;;;;;;;;;5035328;28;20159;-47
2021/12/09 08:15:38;;;;;;;24.70;11.75;;;;;;;;;;5035160;28;20137;-47
2021/12/09 08:20:46;;;;;;;25.23;11.93;;;;;;;;;;5034286;28;20033;-49
2021/12/09 08:23:12;;;;;;;26.38;13.00;;;;;;;;;;5034976;28;20026;-48
2021/12/09 08:25:38;;;;;;;23.95;11.75;;;;;;;;;;5035184;28;20065;-50
2021/12/09 08:28:07;;;;;;;21.95;11.48;;;;;;;;;;5034973;28;20466;-46
2021/12/09 08:30:34;;;;;;;23.38;11.35;;;;;;;;;;5035075;28;20516;-48
2021/12/09 08:33:00;;;;;;;19.20;9.93;;;;;;;;;;5035212;28;20030;-46
2021/12/09 08:35:26;;;;;;;25.83;13.43;;;;;;;;;;5035298;28;20057;-50
2021/12/09 08:37:56;;;;;;;26.67;12.85;;;;;;;;;;5035237;28;20025;-48
2021/12/09 08:40:23;;;;;;;27.50;13.82;;;;;;;;;;5035287;28;20035;-47
2021/12/09 08:42:50;;;;;;;28.77;13.40;;;;;;;;;;5034914;28;20040;-49
2021/12/09 08:45:16;;;;;;;21.48;12.75;;;;;;;;;;5035141;28;20029;-50
2021/12/09 08:47:43;;;;;;;26.95;14.48;;;;;;;;;;5035074;28;20036;-46
2021/12/09 08:50:11;;;;;;;26.25;13.05;;;;;;;;;;5035124;28;20524;-50
2021/12/09 08:52:39;;;;;;;20.17;11.13;;;;;;;;;;5034973;28;20025;-48
2021/12/09 08:55:05;;;;;;;20.23;11.50;;;;;;;;;;5035141;28;20018;-48
2021/12/09 08:57:32;;;;;;;21.02;10.75;;;;;;;;;;5034832;28;20022;-49
2021/12/09 08:59:59;;;;;;;22.90;12.40;;;;;;;;;;5034995;28;20551;-45
2021/12/09 09:02:25;;;;;;;22.38;11.18;;;;;;;;;;5033552;28;20555;-44
2021/12/09 09:04:53;;;;;;;18.55;10.40;;;;;;;;;;5034726;28;20041;-47
2021/12/09 09:07:20;;;;;;;22.85;10.63;;;;;;;;;;5034648;28;20025;-49
2021/12/09 09:09:46;;;;;;;23.80;12.27;;;;;;;;;;5034688;28;20429;-46
2021/12/09 09:12:17;;;;;;;24.20;11.35;;;;;;;;;;5034707;28;20048;-49
2021/12/09 09:14:43;;;;;;;23.80;10.80;;;;;;;;;;5034475;28;20396;-50
2021/12/09 09:17:09;;;;;;;26.67;14.00;;;;;;;;;;5034514;28;20037;-50
2021/12/09 09:19:38;;;;;;;24.35;12.35;;;;;;;;;;5034488;28;20045;-45
2021/12/09 09:22:05;;;;;;;28.90;14.15;;;;;;;;;;5034422;28;20101;-46
2021/12/09 09:24:32;;;;;;;27.80;14.13;;;;;;;;;;5034355;28;20037;-49
2021/12/09 09:26:58;;;;;;;19.23;11.77;;;;;;;;;;5034459;28;20018;-46
2021/12/09 09:29:27;;;;;;;22.63;11.25;;;;;;;;;;5034404;28;20064;-46
2021/12/09 09:31:53;;;;;;;20.10;11.25;;;;;;;;;;5034135;28;20083;-46
2021/12/09 09:34:19;;;;;;;22.40;12.27;;;;;;;;;;5034335;28;20049;-47
2021/12/09 09:36:45;;;;;;;17.95;11.70;;;;;;;;;;5034168;28;20041;-49
2021/12/09 09:39:21;;;;;;;19.92;10.85;;;;;;;;;;5034218;28;20108;-48
2021/12/09 09:42:06;;;;;;;21.70;11.02;;;;;;;;;;5034334;28;20385;-46
2021/12/09 09:44:46;;;;;;;23.33;12.60;;;;;;;;;;5033938;28;20496;-46
2021/12/09 09:47:13;;;;;;;23.63;12.40;;;;;;;;;;5033988;28;20067;-46
2021/12/09 09:49:39;;;;;;;20.17;11.30;;;;;;;;;;5032955;28;20389;-47
2021/12/09 09:52:08;;;;;;;27.38;12.90;;;;;;;;;;5033822;28;20013;-48
2021/12/09 09:54:34;;;;;;;21.70;11.63;;;;;;;;;;5033909;28;20026;-48
2021/12/09 09:57:00;;;;;;;20.85;11.18;;;;;;;;;;5032420;28;20099;-45
2021/12/09 09:59:26;;;;;;;16.63;10.20;;;;;;;;;;5033761;28;20029;-45
2021/12/09 10:01:55;;;;;;;19.23;10.50;;;;;;;;;;5033738;28;20512;-45
2021/12/09 10:04:45;;;;;;;17.95;10.13;;;;;;;;;;5033656;28;20079;-47
2021/12/09 10:07:12;;;;;;;16.17;8.98;;;;;;;;;;5033650;28;20029;-47
2021/12/09 10:09:38;;;;;;;20.30;10.77;;;;;;;;;;5033283;28;20025;-47
2021/12/09 10:12:05;;;;;;;21.70;12.05;;;;;;;;;;5033572;28;20100;-48
2021/12/09 10:14:33;;;;;;;20.40;11.15;;;;;;;;;;5033456;28;20466;-47
2021/12/09 10:17:04;;;;;;;20.17;11.00;;;;;;;;;;5033414;28;20037;-48
2021/12/09 10:19:31;;;;;;;17.38;10.25;;;;;;;;;;5033145;28;20074;-51
2021/12/09 10:22:16;;;;;;;26.55;12.15;;;;;;;;;;5033471;28;20022;-48
2021/12/09 10:24:42;;;;;;;22.20;10.43;;;;;;;;;;5033372;28;20029;-50
2021/12/09 10:27:09;;;;;;;20.17;10.20;;;;;;;;;;5033385;28;20090;-49
2021/12/09 10:29:41;;;;;;;19.20;10.02;;;;;;;;;;5033120;28;20036;-48
2021/12/09 10:32:07;;;;;;;;;;;;;;;;;;5033665;28;20028;-49
2021/12/09 10:34:41;;;;;;;21.05;10.43;;;;;;;;;;5033311;28;19905;-49
2021/12/09 10:37:10;;;;;;;18.60;10.05;;;;;;;;;;5033238;28;20037;-52
2021/12/09 10:39:36;;;;;;;20.90;10.43;;;;;;;;;;5033208;28;20616;-48
2021/12/09 10:42:05;;;;;;;19.33;9.82;;;;;;;;;;5032729;28;20029;-47
2021/12/09 10:44:31;;;;;;;22.13;10.88;;;;;;;;;;5032996;28;20037;-49
2021/12/09 10:48:02;;;;;;;19.20;9.52;;;;;;;;;;5033013;28;20516;-50
2021/12/09 10:50:16;;;;;;;26.50;10.85;;;;;;;;;;5023980;28;20038;-46
2021/12/09 10:52:47;;;;;;;21.08;9.82;;;;;;;;;;5031717;28;20371;-47
2021/12/09 10:55:17;;;;;;;19.88;10.18;;;;;;;;;;5032965;28;20029;-50
2021/12/09 10:57:45;;;;;;;22.17;10.95;;;;;;;;;;5033067;28;20018;-48
2021/12/09 11:00:20;;;;;;;22.42;11.68;;;;;;;;;;5033017;28;20032;-47
2021/12/09 11:03:00;;;;;;;17.48;9.88;;;;;;;;;;5032823;28;20013;-46
2021/12/09 11:05:29;;;;;;;16.60;7.93;;;;;;;;;;5032913;28;20038;-47
2021/12/09 11:07:56;;;;;;;18.55;9.13;;;;;;;;;;5032997;28;20045;-50
2021/12/09 11:10:23;;;;;;;15.88;8.02;;;;;;;;;;5032907;28;20017;-46
2021/12/09 11:12:57;;;;;;;16.83;8.95;;;;;;;;;;5032867;28;20087;-47
2021/12/09 11:15:43;;;;;;;16.35;8.95;;;;;;;;;;5032482;28;20041;-47
2021/12/09 11:18:29;;;;;;;13.00;6.90;;;;;;;;;;5032772;28;20072;-45
2021/12/09 11:20:55;;;;;;;14.45;7.57;;;;;;;;;;5032891;28;20101;-48
2021/12/09 11:23:30;;;;;;;16.05;8.48;;;;;;;;;;5031451;28;20392;-47
2021/12/09 11:25:59;;;;;;;18.35;9.10;;;;;;;;;;5033245;28;20022;-47
2021/12/09 11:28:26;;;;;;;16.65;8.90;;;;;;;;;;5032891;28;20100;-46
2021/12/09 11:31:16;;;;;;;17.70;9.63;;;;;;;;;;5032906;28;20026;-45
2021/12/09 11:33:45;;;;;;;17.87;9.03;;;;;;;;;;5031659;28;20028;-47
2021/12/09 11:36:17;;;;;;;18.35;9.80;;;;;;;;;;5032780;28;20334;-44
2021/12/09 11:39:06;;;;;;;19.90;9.35;;;;;;;;;;5032869;28;20029;-45
2021/12/09 11:41:35;;;;;;;21.42;10.20;;;;;;;;;;5032678;28;20022;-47
2021/12/09 11:44:01;;;;;;;19.00;9.48;;;;;;;;;;5032702;28;20428;-47
2021/12/09 11:46:30;;;;;;;20.85;8.90;;;;;;;;;;5032723;28;20037;-46
2021/12/09 11:48:56;;;;;;;21.98;10.70;;;;;;;;;;5032422;28;20395;-47
2021/12/09 11:51:24;;;;;;;14.15;7.93;;;;;;;;;;5032029;28;20406;-48
2021/12/09 11:53:55;;;;;;;17.67;8.90;;;;;;;;;;5032111;28;20033;-47
2021/12/09 11:56:30;;;;;;;17.63;8.80;;;;;;;;;;5035412;28;20036;-47
2021/12/09 11:59:26;;;;;;;22.02;10.57;;;;;;;;;;5035815;28;20056;-47
2021/12/09 12:08:00;;;;;;;28.35;14.38;;;;;;;;;;5036221;28;20029;-47
2021/12/09 12:13:35;;;;;;;19.50;10.77;;;;;;;;;;5036147;28;20032;-46
2021/12/09 12:16:20;;;;;;;20.35;10.85;;;;;;;;;;5034101;28;20050;-47
2021/12/09 12:18:56;;;;;;;23.25;13.02;;;;;;;;;;5035114;28;20385;-47
2021/12/09 12:27:59;;;;;;;20.15;11.75;;;;;;;;;;5033586;28;20450;-46
2021/12/09 12:33:52;;;;;;;45.97;20.30;;;;;;;;;;4972107;28;20069;-45
2021/12/09 12:36:53;;;;;;;24.17;12.77;;;;;;;;;;4970845;28;20031;-46
2021/12/09 12:39:14;;;;;;;19.65;11.70;;;;;;;;;;4970310;28;20121;-45
2021/12/09 12:41:59;;;;;;;34.42;15.48;;;;;;;;;;4957871;28;20060;-45
2021/12/09 12:44:26;;;;;;;42.25;20.13;;;;;;;;;;4968919;28;20038;-46
2021/12/09 12:47:01;;;;;;;35.00;17.83;;;;;;;;;;4973837;28;20038;-45
2021/12/09 12:49:36;;;;;;;25.58;14.43;;;;;;;;;;4971814;28;20471;-44
2021/12/09 12:52:14;;;;;;;29.30;15.82;;;;;;;;;;4970933;28;20035;-44
2021/12/09 12:54:57;;;;;;;46.03;21.85;;;;;;;;;;4973723;28;20030;-47
2021/12/09 12:57:31;;;;;;;42.70;21.13;;;;;;;;;;4971128;28;20102;-45
2021/12/09 13:00:07;;;;;;;41.88;21.20;;;;;;;;;;4973557;28;20046;-45
2021/12/09 13:05:34;;;;;;;29.08;15.10;;;;;;;;;;4994381;28;20042;-44
2021/12/09 13:13:21;;;;;;;32.90;17.20;;;;;;;;;;5031862;28;20132;-46
2021/12/09 13:19:05;;;;;;;22.50;13.70;;;;;;;;;;5007559;28;20029;-46
2021/12/09 13:21:37;;;;;;;42.72;22.75;;;;;;;;;;5014707;28;20617;-45
2021/12/09 13:24:30;;;;;;;26.75;14.63;;;;;;;;;;5014242;28;20041;-45
2021/12/09 13:27:18;;;;;;;51.10;27.10;;;;;;;;;;5014690;28;20037;-45
2021/12/09 13:32:41;;;;;;;42.75;24.42;;;;;;;;;;5014833;28;20466;-44
2021/12/09 13:35:11;;;;;;;35.90;21.13;;;;;;;;;;5014642;28;20021;-46
2021/12/09 13:54:02;;;;;;;51.42;28.73;;;;;;;;;;5013225;28;20065;-47
2021/12/09 13:54:54;;;;;;;83.45;44.53;;;;;;;;;;5014289;28;20022;-47
2021/12/09 13:57:28;;;;;;;83.90;41.63;;;;;;;;;;5025533;28;20021;-46
2021/12/09 13:59:54;;;;;;;81.68;41.38;;;;;;;;;;5033376;28;20025;-51
2021/12/09 14:02:22;;;;;;;82.22;42.78;;;;;;;;;;5033306;28;20021;-47
2021/12/09 14:04:49;;;;;;;78.45;38.78;;;;;;;;;;5033072;28;20053;-48
2021/12/09 14:07:22;;;;;;;74.05;37.75;;;;;;;;;;5033281;28;20477;-46
2021/12/09 14:10:11;;;;;;;70.18;35.50;;;;;;;;;;5033359;28;20025;-47
2021/12/09 14:12:46;;;;;;;68.70;33.42;;;;;;;;;;5028430;28;20038;-52
2021/12/09 14:15:18;;;;;;;72.43;35.08;;;;;;;;;;5003249;28;20500;-50
2021/12/09 14:17:45;;;;;;;67.50;33.45;;;;;;;;;;5002148;28;21186;-49
2021/12/09 14:20:21;;;;;;;57.50;29.60;;;;;;;;;;5003373;28;20717;-49
2021/12/09 14:22:51;;;;;;;57.83;29.52;;;;;;;;;;5002828;28;20029;-53
2021/12/09 14:25:25;;;;;;;56.22;30.92;;;;;;;;;;5002906;28;20044;-54
2021/12/09 14:27:52;;;;;;;61.58;35.08;;;;;;;;;;5002702;28;20494;-54
2021/12/09 14:30:21;;;;;;;56.50;33.17;;;;;;;;;;5002730;28;20481;-51
2021/12/09 14:32:57;;;;;;;59.22;35.42;;;;;;;;;;5002842;28;20036;-54
2021/12/09 14:35:25;;;;;;;69.53;36.22;;;;;;;;;;5003230;28;20090;-50
2021/12/09 14:37:51;;;;;;;70.70;40.25;;;;;;;;;;5002846;28;20132;-51
2021/12/09 14:40:20;;;;;;;71.10;40.28;;;;;;;;;;5002790;28;20021;-50
2021/12/09 14:42:51;;;;;;;82.63;45.58;;;;;;;;;;5002794;28;20359;-49
2021/12/09 14:45:18;;;;;;;79.70;43.30;;;;;;;;;;5002265;28;20088;-54
2021/12/09 14:47:58;;;;;;;82.40;45.55;;;;;;;;;;5002586;28;20135;-52
2021/12/09 14:50:32;;;;;;;92.97;49.65;;;;;;;;;;5003205;28;20743;-50
2021/12/09 14:52:58;;;;;;;114.47;60.38;;;;;;;;;;5002936;28;20501;-49
2021/12/09 14:55:26;;;;;;;116.30;60.58;;;;;;;;;;5002931;28;20026;-51
2021/12/09 14:57:52;;;;;;;118.32;63.42;;;;;;;;;;5003148;28;20473;-49
2021/12/09 15:00:36;;;;;;;166.07;89.20;;;;;;;;;;5002723;28;20029;-54
2021/12/09 15:03:03;;;;;;;178.93;93.30;;;;;;;;;;5002742;28;20538;-51
2021/12/09 15:05:31;;;;;;;202.38;105.65;;;;;;;;;;5002351;28;20776;-51
2021/12/09 15:08:05;;;;;;;201.98;104.30;;;;;;;;;;5002689;28;20093;-51
2021/12/09 15:10:35;;;;;;;195.82;103.10;;;;;;;;;;5002338;28;20030;-54
2021/12/09 15:13:03;;;;;;;175.98;92.43;;;;;;;;;;5002967;28;20300;-50
2021/12/09 15:15:31;;;;;;;173.80;88.70;;;;;;;;;;5003062;28;20103;-52
2021/12/09 15:18:00;;;;;;;142.68;79.35;;;;;;;;;;5002162;28;20029;-50
2021/12/09 15:20:38;;;;;;;129.70;71.30;;;;;;;;;;5002615;28;20452;-52
2021/12/09 15:23:12;;;;;;;144.25;70.97;;;;;;;;;;5002329;28;20440;-50